sensor_id;sensor_type;location;lat;lon;timestamp;temperature;humidity
55785;DHT22;41709;52.536;5.688;2023-07-20T00:01:59;16.60;90.70
55785;DHT22;41709;52.536;5.688;2023-07-20T00:04:24;16.60;90.70
55785;DHT22;41709;52.536;5.688;2023-07-20T00:06:50;16.60;90.90
55785;DHT22;41709;52.536;5.688;2023-07-20T00:09:15;16.60;91.00
55785;DHT22;41709;52.536;5.688;2023-07-20T00:11:48;16.60;91.00
55785;DHT22;41709;52.536;5.688;2023-07-20T00:14:15;16.50;90.90
55785;DHT22;41709;52.536;5.688;2023-07-20T00:16:40;16.50;90.90
55785;DHT22;41709;52.536;5.688;2023-07-20T00:19:06;16.50;90.80
55785;DHT22;41709;52.536;5.688;2023-07-20T00:21:32;16.40;90.70
55785;DHT22;41709;52.536;5.688;2023-07-20T00:23:57;16.40;90.60
55785;DHT22;41709;52.536;5.688;2023-07-20T00:26:23;16.30;90.70
55785;DHT22;41709;52.536;5.688;2023-07-20T00:28:50;16.20;90.90
55785;DHT22;41709;52.536;5.688;2023-07-20T00:31:17;16.10;90.90
55785;DHT22;41709;52.536;5.688;2023-07-20T00:33:42;16.10;91.40
55785;DHT22;41709;52.536;5.688;2023-07-20T00:36:08;16.10;91.20
55785;DHT22;41709;52.536;5.688;2023-07-20T00:38:34;16.10;91.20
55785;DHT22;41709;52.536;5.688;2023-07-20T00:40:59;16.10;91.00
55785;DHT22;41709;52.536;5.688;2023-07-20T00:43:25;16.10;91.10
55785;DHT22;41709;52.536;5.688;2023-07-20T00:45:50;16.10;90.90
55785;DHT22;41709;52.536;5.688;2023-07-20T00:48:16;16.10;90.60
55785;DHT22;41709;52.536;5.688;2023-07-20T00:50:42;16.10;90.70
55785;DHT22;41709;52.536;5.688;2023-07-20T00:53:08;16.10;90.50
55785;DHT22;41709;52.536;5.688;2023-07-20T00:55:34;16.10;90.40
55785;DHT22;41709;52.536;5.688;2023-07-20T00:58:00;16.10;90.20
55785;DHT22;41709;52.536;5.688;2023-07-20T01:00:26;16.10;90.10
55785;DHT22;41709;52.536;5.688;2023-07-20T01:02:52;16.10;90.10
55785;DHT22;41709;52.536;5.688;2023-07-20T01:05:18;16.10;89.90
55785;DHT22;41709;52.536;5.688;2023-07-20T01:08:06;16.10;89.70
55785;DHT22;41709;52.536;5.688;2023-07-20T01:10:39;16.10;90.00
55785;DHT22;41709;52.536;5.688;2023-07-20T01:13:06;16.10;89.90
55785;DHT22;41709;52.536;5.688;2023-07-20T01:15:34;16.10;90.00
55785;DHT22;41709;52.536;5.688;2023-07-20T01:17:59;16.10;90.00
55785;DHT22;41709;52.536;5.688;2023-07-20T01:20:28;16.10;90.00
55785;DHT22;41709;52.536;5.688;2023-07-20T01:31:33;16.00;90.30
55785;DHT22;41709;52.536;5.688;2023-07-20T01:34:01;15.90;90.30
55785;DHT22;41709;52.536;5.688;2023-07-20T01:36:31;16.00;90.40
55785;DHT22;41709;52.536;5.688;2023-07-20T01:38:58;15.90;90.40
55785;DHT22;41709;52.536;5.688;2023-07-20T01:41:24;15.90;90.40
55785;DHT22;41709;52.536;5.688;2023-07-20T01:43:50;15.90;90.50
55785;DHT22;41709;52.536;5.688;2023-07-20T01:46:16;15.90;90.70
55785;DHT22;41709;52.536;5.688;2023-07-20T01:48:41;15.90;90.80
55785;DHT22;41709;52.536;5.688;2023-07-20T01:51:07;15.90;90.80
55785;DHT22;41709;52.536;5.688;2023-07-20T01:53:33;15.90;90.80
55785;DHT22;41709;52.536;5.688;2023-07-20T01:55:59;15.90;90.70
55785;DHT22;41709;52.536;5.688;2023-07-20T01:58:25;15.90;90.60
55785;DHT22;41709;52.536;5.688;2023-07-20T02:00:50;15.90;90.70
55785;DHT22;41709;52.536;5.688;2023-07-20T02:03:16;15.90;90.70
55785;DHT22;41709;52.536;5.688;2023-07-20T02:05:45;15.90;90.60
55785;DHT22;41709;52.536;5.688;2023-07-20T02:08:10;15.90;90.60
55785;DHT22;41709;52.536;5.688;2023-07-20T02:10:36;15.90;90.70
55785;DHT22;41709;52.536;5.688;2023-07-20T02:13:01;15.80;90.60
55785;DHT22;41709;52.536;5.688;2023-07-20T02:15:27;15.80;90.70
55785;DHT22;41709;52.536;5.688;2023-07-20T02:17:54;15.80;90.60
55785;DHT22;41709;52.536;5.688;2023-07-20T02:20:19;15.80;90.50
55785;DHT22;41709;52.536;5.688;2023-07-20T02:22:45;15.80;90.60
55785;DHT22;41709;52.536;5.688;2023-07-20T02:25:11;15.80;90.60
55785;DHT22;41709;52.536;5.688;2023-07-20T02:27:37;15.80;90.50
55785;DHT22;41709;52.536;5.688;2023-07-20T02:30:04;15.80;90.50
55785;DHT22;41709;52.536;5.688;2023-07-20T02:32:30;15.80;90.40
55785;DHT22;41709;52.536;5.688;2023-07-20T02:34:57;15.70;90.40
55785;DHT22;41709;52.536;5.688;2023-07-20T02:37:23;15.70;90.40
55785;DHT22;41709;52.536;5.688;2023-07-20T02:39:48;15.70;90.30
55785;DHT22;41709;52.536;5.688;2023-07-20T02:42:14;15.70;90.20
55785;DHT22;41709;52.536;5.688;2023-07-20T02:44:39;15.70;90.20
55785;DHT22;41709;52.536;5.688;2023-07-20T02:47:05;15.70;90.30
55785;DHT22;41709;52.536;5.688;2023-07-20T02:49:31;15.60;90.40
55785;DHT22;41709;52.536;5.688;2023-07-20T02:51:57;15.60;90.40
55785;DHT22;41709;52.536;5.688;2023-07-20T02:54:22;15.60;90.50
55785;DHT22;41709;52.536;5.688;2023-07-20T02:56:48;15.60;90.50
55785;DHT22;41709;52.536;5.688;2023-07-20T02:59:13;15.60;90.40
55785;DHT22;41709;52.536;5.688;2023-07-20T03:01:39;15.50;90.30
55785;DHT22;41709;52.536;5.688;2023-07-20T03:04:07;15.50;90.40
55785;DHT22;41709;52.536;5.688;2023-07-20T03:06:35;15.50;90.50
55785;DHT22;41709;52.536;5.688;2023-07-20T03:09:01;15.50;90.50
55785;DHT22;41709;52.536;5.688;2023-07-20T03:11:27;15.50;90.40
55785;DHT22;41709;52.536;5.688;2023-07-20T03:13:52;15.40;90.50
55785;DHT22;41709;52.536;5.688;2023-07-20T03:16:19;15.40;90.50
55785;DHT22;41709;52.536;5.688;2023-07-20T03:18:45;15.40;90.50
55785;DHT22;41709;52.536;5.688;2023-07-20T03:21:11;15.40;90.40
55785;DHT22;41709;52.536;5.688;2023-07-20T03:23:37;15.40;90.40
55785;DHT22;41709;52.536;5.688;2023-07-20T03:26:03;15.40;90.40
55785;DHT22;41709;52.536;5.688;2023-07-20T03:28:29;15.40;90.50
55785;DHT22;41709;52.536;5.688;2023-07-20T03:30:56;15.30;90.50
55785;DHT22;41709;52.536;5.688;2023-07-20T03:33:24;15.30;90.50
55785;DHT22;41709;52.536;5.688;2023-07-20T03:35:50;15.30;90.50
55785;DHT22;41709;52.536;5.688;2023-07-20T03:38:16;15.30;90.40
55785;DHT22;41709;52.536;5.688;2023-07-20T03:40:59;15.30;90.40
55785;DHT22;41709;52.536;5.688;2023-07-20T03:43:27;15.20;90.30
55785;DHT22;41709;52.536;5.688;2023-07-20T03:45:53;15.20;90.30
55785;DHT22;41709;52.536;5.688;2023-07-20T03:48:20;15.20;90.20
55785;DHT22;41709;52.536;5.688;2023-07-20T03:50:48;15.20;90.20
55785;DHT22;41709;52.536;5.688;2023-07-20T03:53:15;15.10;90.20
55785;DHT22;41709;52.536;5.688;2023-07-20T03:55:41;15.10;90.20
55785;DHT22;41709;52.536;5.688;2023-07-20T03:58:07;15.10;90.20
55785;DHT22;41709;52.536;5.688;2023-07-20T04:00:34;15.10;90.60
55785;DHT22;41709;52.536;5.688;2023-07-20T04:03:00;15.10;90.30
55785;DHT22;41709;52.536;5.688;2023-07-20T04:05:26;15.10;90.30
55785;DHT22;41709;52.536;5.688;2023-07-20T04:07:52;15.00;90.30
55785;DHT22;41709;52.536;5.688;2023-07-20T04:10:18;15.00;90.40
55785;DHT22;41709;52.536;5.688;2023-07-20T04:12:44;15.00;90.20
55785;DHT22;41709;52.536;5.688;2023-07-20T04:15:10;15.00;90.20
55785;DHT22;41709;52.536;5.688;2023-07-20T04:17:36;14.90;90.20
55785;DHT22;41709;52.536;5.688;2023-07-20T04:20:02;15.00;90.30
55785;DHT22;41709;52.536;5.688;2023-07-20T04:22:28;14.90;90.40
55785;DHT22;41709;52.536;5.688;2023-07-20T04:24:54;14.90;90.40
55785;DHT22;41709;52.536;5.688;2023-07-20T04:27:19;14.90;90.50
55785;DHT22;41709;52.536;5.688;2023-07-20T04:29:45;14.90;90.60
55785;DHT22;41709;52.536;5.688;2023-07-20T04:32:10;14.90;90.60
55785;DHT22;41709;52.536;5.688;2023-07-20T04:34:36;14.90;90.60
55785;DHT22;41709;52.536;5.688;2023-07-20T04:37:03;15.00;90.70
55785;DHT22;41709;52.536;5.688;2023-07-20T04:39:29;15.00;90.70
55785;DHT22;41709;52.536;5.688;2023-07-20T04:41:56;15.00;90.80
55785;DHT22;41709;52.536;5.688;2023-07-20T04:44:21;15.00;90.80
55785;DHT22;41709;52.536;5.688;2023-07-20T04:46:47;15.00;90.70
55785;DHT22;41709;52.536;5.688;2023-07-20T04:49:13;15.00;90.70
55785;DHT22;41709;52.536;5.688;2023-07-20T04:51:39;15.10;90.80
55785;DHT22;41709;52.536;5.688;2023-07-20T04:54:04;15.10;90.90
55785;DHT22;41709;52.536;5.688;2023-07-20T04:56:30;15.10;91.00
55785;DHT22;41709;52.536;5.688;2023-07-20T04:58:56;15.20;91.20
55785;DHT22;41709;52.536;5.688;2023-07-20T05:01:23;15.20;91.10
55785;DHT22;41709;52.536;5.688;2023-07-20T05:03:48;15.30;91.10
55785;DHT22;41709;52.536;5.688;2023-07-20T05:06:14;15.30;91.10
55785;DHT22;41709;52.536;5.688;2023-07-20T05:08:40;15.40;91.30
55785;DHT22;41709;52.536;5.688;2023-07-20T05:11:06;15.40;91.10
55785;DHT22;41709;52.536;5.688;2023-07-20T05:13:32;15.50;91.00
55785;DHT22;41709;52.536;5.688;2023-07-20T05:15:58;15.60;90.90
55785;DHT22;41709;52.536;5.688;2023-07-20T05:18:24;15.70;90.80
55785;DHT22;41709;52.536;5.688;2023-07-20T05:20:50;15.70;90.80
55785;DHT22;41709;52.536;5.688;2023-07-20T05:23:17;15.80;90.60
55785;DHT22;41709;52.536;5.688;2023-07-20T05:25:43;15.80;90.30
55785;DHT22;41709;52.536;5.688;2023-07-20T05:28:09;15.90;90.20
55785;DHT22;41709;52.536;5.688;2023-07-20T05:30:35;16.00;89.70
55785;DHT22;41709;52.536;5.688;2023-07-20T05:33:00;16.00;88.80
55785;DHT22;41709;52.536;5.688;2023-07-20T05:35:26;16.10;88.20
55785;DHT22;41709;52.536;5.688;2023-07-20T05:37:52;16.10;87.70
55785;DHT22;41709;52.536;5.688;2023-07-20T05:40:17;16.20;89.10
55785;DHT22;41709;52.536;5.688;2023-07-20T05:42:45;16.30;89.60
55785;DHT22;41709;52.536;5.688;2023-07-20T05:45:11;16.30;89.40
55785;DHT22;41709;52.536;5.688;2023-07-20T05:47:37;16.40;89.40
55785;DHT22;41709;52.536;5.688;2023-07-20T05:50:03;16.40;89.00
55785;DHT22;41709;52.536;5.688;2023-07-20T05:52:29;16.40;89.00
55785;DHT22;41709;52.536;5.688;2023-07-20T05:54:55;16.50;88.90
55785;DHT22;41709;52.536;5.688;2023-07-20T05:57:20;16.50;88.30
55785;DHT22;41709;52.536;5.688;2023-07-20T05:59:46;16.60;87.10
55785;DHT22;41709;52.536;5.688;2023-07-20T06:02:12;16.60;86.80
55785;DHT22;41709;52.536;5.688;2023-07-20T06:04:38;16.60;87.90
55785;DHT22;41709;52.536;5.688;2023-07-20T06:07:04;16.60;87.50
55785;DHT22;41709;52.536;5.688;2023-07-20T06:09:30;16.60;86.70
55785;DHT22;41709;52.536;5.688;2023-07-20T06:11:56;16.50;87.80
55785;DHT22;41709;52.536;5.688;2023-07-20T06:14:22;16.60;88.60
55785;DHT22;41709;52.536;5.688;2023-07-20T06:16:47;16.50;88.80
55785;DHT22;41709;52.536;5.688;2023-07-20T06:19:13;16.50;88.60
55785;DHT22;41709;52.536;5.688;2023-07-20T06:21:39;16.60;88.60
55785;DHT22;41709;52.536;5.688;2023-07-20T06:24:05;16.60;89.10
55785;DHT22;41709;52.536;5.688;2023-07-20T06:26:31;16.70;89.30
55785;DHT22;41709;52.536;5.688;2023-07-20T06:28:56;16.70;88.60
55785;DHT22;41709;52.536;5.688;2023-07-20T06:31:22;16.70;87.30
55785;DHT22;41709;52.536;5.688;2023-07-20T06:33:48;16.70;87.20
55785;DHT22;41709;52.536;5.688;2023-07-20T06:36:15;16.70;87.40
55785;DHT22;41709;52.536;5.688;2023-07-20T06:38:41;16.80;86.70
55785;DHT22;41709;52.536;5.688;2023-07-20T06:41:06;16.80;86.60
55785;DHT22;41709;52.536;5.688;2023-07-20T06:43:32;16.80;87.10
55785;DHT22;41709;52.536;5.688;2023-07-20T06:45:58;16.80;86.80
55785;DHT22;41709;52.536;5.688;2023-07-20T06:48:23;16.90;86.60
55785;DHT22;41709;52.536;5.688;2023-07-20T06:50:49;16.90;85.80
55785;DHT22;41709;52.536;5.688;2023-07-20T06:53:14;17.00;85.40
55785;DHT22;41709;52.536;5.688;2023-07-20T06:55:42;17.10;84.90
55785;DHT22;41709;52.536;5.688;2023-07-20T06:58:07;17.10;84.40
55785;DHT22;41709;52.536;5.688;2023-07-20T07:00:33;17.10;83.50
55785;DHT22;41709;52.536;5.688;2023-07-20T07:02:58;17.20;83.50
55785;DHT22;41709;52.536;5.688;2023-07-20T07:05:24;17.30;83.70
55785;DHT22;41709;52.536;5.688;2023-07-20T07:07:50;17.40;84.90
55785;DHT22;41709;52.536;5.688;2023-07-20T07:10:15;17.50;82.50
55785;DHT22;41709;52.536;5.688;2023-07-20T07:12:41;17.60;81.30
55785;DHT22;41709;52.536;5.688;2023-07-20T07:15:07;17.60;81.50
55785;DHT22;41709;52.536;5.688;2023-07-20T07:17:33;17.70;81.40
55785;DHT22;41709;52.536;5.688;2023-07-20T07:19:59;17.70;81.30
55785;DHT22;41709;52.536;5.688;2023-07-20T07:22:24;17.60;80.60
55785;DHT22;41709;52.536;5.688;2023-07-20T07:24:51;17.50;82.10
55785;DHT22;41709;52.536;5.688;2023-07-20T07:27:16;17.40;82.60
55785;DHT22;41709;52.536;5.688;2023-07-20T07:29:42;17.30;82.00
55785;DHT22;41709;52.536;5.688;2023-07-20T07:32:12;17.30;82.20
55785;DHT22;41709;52.536;5.688;2023-07-20T07:34:37;17.10;81.80
55785;DHT22;41709;52.536;5.688;2023-07-20T07:37:04;17.10;82.70
55785;DHT22;41709;52.536;5.688;2023-07-20T07:39:30;17.10;83.70
55785;DHT22;41709;52.536;5.688;2023-07-20T07:41:56;17.10;83.40
55785;DHT22;41709;52.536;5.688;2023-07-20T07:44:22;17.00;83.90
55785;DHT22;41709;52.536;5.688;2023-07-20T07:46:47;17.10;84.80
55785;DHT22;41709;52.536;5.688;2023-07-20T07:49:14;17.10;84.30
55785;DHT22;41709;52.536;5.688;2023-07-20T07:51:40;17.10;82.30
55785;DHT22;41709;52.536;5.688;2023-07-20T07:54:05;17.10;82.20
55785;DHT22;41709;52.536;5.688;2023-07-20T07:56:31;17.20;81.40
55785;DHT22;41709;52.536;5.688;2023-07-20T07:58:56;17.20;81.20
55785;DHT22;41709;52.536;5.688;2023-07-20T08:01:22;17.20;81.60
55785;DHT22;41709;52.536;5.688;2023-07-20T08:03:47;17.30;79.90
55785;DHT22;41709;52.536;5.688;2023-07-20T08:06:14;17.40;80.60
55785;DHT22;41709;52.536;5.688;2023-07-20T08:08:40;17.40;79.50
55785;DHT22;41709;52.536;5.688;2023-07-20T08:11:05;17.40;81.70
55785;DHT22;41709;52.536;5.688;2023-07-20T08:13:31;17.50;79.90
55785;DHT22;41709;52.536;5.688;2023-07-20T08:15:58;17.50;78.50
55785;DHT22;41709;52.536;5.688;2023-07-20T08:18:24;17.60;79.40
55785;DHT22;41709;52.536;5.688;2023-07-20T08:20:49;17.60;78.30
55785;DHT22;41709;52.536;5.688;2023-07-20T08:23:15;17.60;77.90
55785;DHT22;41709;52.536;5.688;2023-07-20T08:25:41;17.60;79.20
55785;DHT22;41709;52.536;5.688;2023-07-20T08:28:14;17.80;79.90
55785;DHT22;41709;52.536;5.688;2023-07-20T08:30:44;17.70;78.00
55785;DHT22;41709;52.536;5.688;2023-07-20T08:33:12;17.80;77.60
55785;DHT22;41709;52.536;5.688;2023-07-20T08:35:38;17.90;77.70
55785;DHT22;41709;52.536;5.688;2023-07-20T08:38:03;18.00;77.90
55785;DHT22;41709;52.536;5.688;2023-07-20T08:40:31;17.90;76.20
55785;DHT22;41709;52.536;5.688;2023-07-20T08:42:58;18.00;76.80
55785;DHT22;41709;52.536;5.688;2023-07-20T08:45:26;18.00;75.70
55785;DHT22;41709;52.536;5.688;2023-07-20T08:47:55;18.00;75.40
55785;DHT22;41709;52.536;5.688;2023-07-20T08:50:21;18.10;75.90
55785;DHT22;41709;52.536;5.688;2023-07-20T08:52:48;18.10;76.50
55785;DHT22;41709;52.536;5.688;2023-07-20T08:55:15;18.20;76.10
55785;DHT22;41709;52.536;5.688;2023-07-20T08:57:41;18.10;75.50
55785;DHT22;41709;52.536;5.688;2023-07-20T09:00:11;18.20;76.60
55785;DHT22;41709;52.536;5.688;2023-07-20T09:02:39;18.20;75.30
55785;DHT22;41709;52.536;5.688;2023-07-20T09:05:08;18.10;74.60
55785;DHT22;41709;52.536;5.688;2023-07-20T09:07:35;18.20;76.50
55785;DHT22;41709;52.536;5.688;2023-07-20T09:10:02;18.20;74.00
55785;DHT22;41709;52.536;5.688;2023-07-20T09:12:32;18.30;74.10
55785;DHT22;41709;52.536;5.688;2023-07-20T09:14:58;18.40;76.70
55785;DHT22;41709;52.536;5.688;2023-07-20T09:17:25;18.60;75.40
55785;DHT22;41709;52.536;5.688;2023-07-20T09:19:51;18.50;74.60
55785;DHT22;41709;52.536;5.688;2023-07-20T09:22:17;18.50;73.90
55785;DHT22;41709;52.536;5.688;2023-07-20T09:24:43;18.60;72.90
55785;DHT22;41709;52.536;5.688;2023-07-20T09:27:09;18.70;73.60
55785;DHT22;41709;52.536;5.688;2023-07-20T09:29:53;18.80;74.00
55785;DHT22;41709;52.536;5.688;2023-07-20T09:32:19;18.80;73.90
55785;DHT22;41709;52.536;5.688;2023-07-20T09:34:49;18.90;73.00
55785;DHT22;41709;52.536;5.688;2023-07-20T09:37:20;18.90;72.30
55785;DHT22;41709;52.536;5.688;2023-07-20T09:39:47;19.00;72.80
55785;DHT22;41709;52.536;5.688;2023-07-20T09:42:13;19.00;74.10
55785;DHT22;41709;52.536;5.688;2023-07-20T09:44:39;19.00;74.00
55785;DHT22;41709;52.536;5.688;2023-07-20T09:47:06;19.10;73.80
55785;DHT22;41709;52.536;5.688;2023-07-20T09:49:32;19.10;73.90
55785;DHT22;41709;52.536;5.688;2023-07-20T09:51:58;19.00;74.40
55785;DHT22;41709;52.536;5.688;2023-07-20T09:54:26;19.00;75.00
55785;DHT22;41709;52.536;5.688;2023-07-20T09:56:54;18.90;75.00
55785;DHT22;41709;52.536;5.688;2023-07-20T09:59:21;19.00;75.00
55785;DHT22;41709;52.536;5.688;2023-07-20T10:01:47;19.00;74.80
55785;DHT22;41709;52.536;5.688;2023-07-20T10:04:16;19.00;74.70
55785;DHT22;41709;52.536;5.688;2023-07-20T10:06:47;19.00;75.30
55785;DHT22;41709;52.536;5.688;2023-07-20T10:09:15;18.90;74.90
55785;DHT22;41709;52.536;5.688;2023-07-20T10:11:49;18.90;75.10
55785;DHT22;41709;52.536;5.688;2023-07-20T10:14:19;18.90;74.60
55785;DHT22;41709;52.536;5.688;2023-07-20T10:16:50;19.00;75.00
55785;DHT22;41709;52.536;5.688;2023-07-20T10:19:27;19.00;74.00
55785;DHT22;41709;52.536;5.688;2023-07-20T10:22:07;18.80;73.80
55785;DHT22;41709;52.536;5.688;2023-07-20T10:24:36;18.90;74.00
55785;DHT22;41709;52.536;5.688;2023-07-20T10:27:01;18.90;74.50
55785;DHT22;41709;52.536;5.688;2023-07-20T10:29:28;18.90;74.50
55785;DHT22;41709;52.536;5.688;2023-07-20T10:31:55;18.90;73.50
55785;DHT22;41709;52.536;5.688;2023-07-20T10:34:22;19.00;73.10
55785;DHT22;41709;52.536;5.688;2023-07-20T10:36:48;19.00;73.30
55785;DHT22;41709;52.536;5.688;2023-07-20T10:39:32;19.00;73.20
55785;DHT22;41709;52.536;5.688;2023-07-20T10:42:03;19.10;72.40
55785;DHT22;41709;52.536;5.688;2023-07-20T10:44:30;19.10;71.50
55785;DHT22;41709;52.536;5.688;2023-07-20T10:47:00;19.20;70.30
55785;DHT22;41709;52.536;5.688;2023-07-20T10:49:26;19.20;68.70
55785;DHT22;41709;52.536;5.688;2023-07-20T10:51:58;19.20;71.20
55785;DHT22;41709;52.536;5.688;2023-07-20T10:56:54;19.20;71.40
55785;DHT22;41709;52.536;5.688;2023-07-20T10:59:37;19.20;69.50
55785;DHT22;41709;52.536;5.688;2023-07-20T11:02:07;19.30;69.30
55785;DHT22;41709;52.536;5.688;2023-07-20T11:04:43;19.40;67.80
55785;DHT22;41709;52.536;5.688;2023-07-20T11:07:09;19.50;68.00
55785;DHT22;41709;52.536;5.688;2023-07-20T11:09:37;19.60;64.80
55785;DHT22;41709;52.536;5.688;2023-07-20T11:12:13;19.60;64.80
55785;DHT22;41709;52.536;5.688;2023-07-20T11:14:56;19.60;64.20
55785;DHT22;41709;52.536;5.688;2023-07-20T11:17:32;19.70;64.50
55785;DHT22;41709;52.536;5.688;2023-07-20T11:20:02;19.80;64.80
55785;DHT22;41709;52.536;5.688;2023-07-20T11:22:28;19.80;65.60
55785;DHT22;41709;52.536;5.688;2023-07-20T11:24:56;19.80;65.30
55785;DHT22;41709;52.536;5.688;2023-07-20T11:27:22;19.90;64.90
55785;DHT22;41709;52.536;5.688;2023-07-20T11:29:48;19.90;64.20
55785;DHT22;41709;52.536;5.688;2023-07-20T11:32:20;19.90;66.10
55785;DHT22;41709;52.536;5.688;2023-07-20T11:34:47;20.00;64.90
55785;DHT22;41709;52.536;5.688;2023-07-20T11:37:13;20.00;64.50
55785;DHT22;41709;52.536;5.688;2023-07-20T11:39:38;20.00;62.50
55785;DHT22;41709;52.536;5.688;2023-07-20T11:42:05;20.00;61.80
55785;DHT22;41709;52.536;5.688;2023-07-20T11:44:32;20.10;61.90
55785;DHT22;41709;52.536;5.688;2023-07-20T11:47:10;20.10;61.60
55785;DHT22;41709;52.536;5.688;2023-07-20T11:49:37;20.20;62.40
55785;DHT22;41709;52.536;5.688;2023-07-20T11:52:04;20.30;61.40
55785;DHT22;41709;52.536;5.688;2023-07-20T11:54:31;20.40;59.30
55785;DHT22;41709;52.536;5.688;2023-07-20T11:57:00;20.40;60.20
55785;DHT22;41709;52.536;5.688;2023-07-20T11:59:25;20.40;59.30
55785;DHT22;41709;52.536;5.688;2023-07-20T12:01:52;20.50;62.70
55785;DHT22;41709;52.536;5.688;2023-07-20T12:04:18;20.50;62.10
55785;DHT22;41709;52.536;5.688;2023-07-20T12:06:45;20.60;61.10
55785;DHT22;41709;52.536;5.688;2023-07-20T12:09:14;20.60;61.20
55785;DHT22;41709;52.536;5.688;2023-07-20T12:11:43;20.70;60.30
55785;DHT22;41709;52.536;5.688;2023-07-20T12:14:10;20.50;60.60
55785;DHT22;41709;52.536;5.688;2023-07-20T12:16:37;20.50;61.70
55785;DHT22;41709;52.536;5.688;2023-07-20T12:19:07;20.50;60.90
55785;DHT22;41709;52.536;5.688;2023-07-20T12:21:35;20.40;62.80
55785;DHT22;41709;52.536;5.688;2023-07-20T12:24:03;20.40;63.70
55785;DHT22;41709;52.536;5.688;2023-07-20T12:26:29;20.50;60.60
55785;DHT22;41709;52.536;5.688;2023-07-20T12:28:55;20.60;61.50
55785;DHT22;41709;52.536;5.688;2023-07-20T12:31:22;20.70;61.60
55785;DHT22;41709;52.536;5.688;2023-07-20T12:33:49;20.80;62.60
55785;DHT22;41709;52.536;5.688;2023-07-20T12:36:15;20.90;61.60
55785;DHT22;41709;52.536;5.688;2023-07-20T12:38:40;20.90;59.70
55785;DHT22;41709;52.536;5.688;2023-07-20T12:41:07;21.00;62.40
55785;DHT22;41709;52.536;5.688;2023-07-20T12:43:33;21.00;63.20
55785;DHT22;41709;52.536;5.688;2023-07-20T12:45:59;21.10;63.60
55785;DHT22;41709;52.536;5.688;2023-07-20T12:48:25;21.10;62.20
55785;DHT22;41709;52.536;5.688;2023-07-20T12:50:51;21.00;64.60
55785;DHT22;41709;52.536;5.688;2023-07-20T12:53:17;21.00;64.80
55785;DHT22;41709;52.536;5.688;2023-07-20T12:55:43;20.90;65.40
55785;DHT22;41709;52.536;5.688;2023-07-20T12:58:11;20.80;63.30
55785;DHT22;41709;52.536;5.688;2023-07-20T13:00:37;20.80;62.70
55785;DHT22;41709;52.536;5.688;2023-07-20T13:03:02;20.80;63.40
55785;DHT22;41709;52.536;5.688;2023-07-20T13:05:32;20.70;64.20
55785;DHT22;41709;52.536;5.688;2023-07-20T13:07:58;20.70;63.30
55785;DHT22;41709;52.536;5.688;2023-07-20T13:10:24;20.70;63.10
55785;DHT22;41709;52.536;5.688;2023-07-20T13:12:50;20.60;61.90
55785;DHT22;41709;52.536;5.688;2023-07-20T13:15:16;20.60;61.60
55785;DHT22;41709;52.536;5.688;2023-07-20T13:17:42;20.70;62.80
55785;DHT22;41709;52.536;5.688;2023-07-20T13:20:09;20.70;62.70
55785;DHT22;41709;52.536;5.688;2023-07-20T13:22:40;20.80;64.30
55785;DHT22;41709;52.536;5.688;2023-07-20T13:25:07;20.80;63.30
55785;DHT22;41709;52.536;5.688;2023-07-20T13:27:33;20.90;63.00
55785;DHT22;41709;52.536;5.688;2023-07-20T13:29:59;20.90;61.70
55785;DHT22;41709;52.536;5.688;2023-07-20T13:32:26;21.10;62.90
55785;DHT22;41709;52.536;5.688;2023-07-20T13:34:52;21.30;60.70
55785;DHT22;41709;52.536;5.688;2023-07-20T13:37:18;21.40;61.10
55785;DHT22;41709;52.536;5.688;2023-07-20T13:39:44;21.50;62.00
55785;DHT22;41709;52.536;5.688;2023-07-20T13:42:10;21.60;62.80
55785;DHT22;41709;52.536;5.688;2023-07-20T13:44:37;21.70;61.30
55785;DHT22;41709;52.536;5.688;2023-07-20T13:47:04;21.70;60.50
55785;DHT22;41709;52.536;5.688;2023-07-20T13:49:32;21.80;61.70
55785;DHT22;41709;52.536;5.688;2023-07-20T13:51:58;21.80;60.60
55785;DHT22;41709;52.536;5.688;2023-07-20T13:54:24;21.90;59.40
55785;DHT22;41709;52.536;5.688;2023-07-20T13:56:50;21.90;59.90
55785;DHT22;41709;52.536;5.688;2023-07-20T13:59:16;21.90;59.20
55785;DHT22;41709;52.536;5.688;2023-07-20T14:01:41;22.00;61.00
55785;DHT22;41709;52.536;5.688;2023-07-20T14:04:07;21.90;59.20
55785;DHT22;41709;52.536;5.688;2023-07-20T14:06:33;21.90;58.90
55785;DHT22;41709;52.536;5.688;2023-07-20T14:08:59;21.80;60.00
55785;DHT22;41709;52.536;5.688;2023-07-20T14:11:26;21.70;58.20
55785;DHT22;41709;52.536;5.688;2023-07-20T14:13:52;21.70;59.50
55785;DHT22;41709;52.536;5.688;2023-07-20T14:16:21;21.70;58.90
55785;DHT22;41709;52.536;5.688;2023-07-20T14:18:47;21.80;59.20
55785;DHT22;41709;52.536;5.688;2023-07-20T14:21:17;21.90;58.70
55785;DHT22;41709;52.536;5.688;2023-07-20T14:23:47;21.90;58.40
55785;DHT22;41709;52.536;5.688;2023-07-20T14:26:13;21.90;59.70
55785;DHT22;41709;52.536;5.688;2023-07-20T14:28:39;21.90;58.50
55785;DHT22;41709;52.536;5.688;2023-07-20T14:31:05;21.90;57.30
55785;DHT22;41709;52.536;5.688;2023-07-20T14:33:31;21.90;57.70
55785;DHT22;41709;52.536;5.688;2023-07-20T14:35:56;21.90;57.70
55785;DHT22;41709;52.536;5.688;2023-07-20T14:38:22;21.90;58.00
55785;DHT22;41709;52.536;5.688;2023-07-20T14:40:47;21.90;58.80
55785;DHT22;41709;52.536;5.688;2023-07-20T14:43:13;21.90;58.40
55785;DHT22;41709;52.536;5.688;2023-07-20T14:45:40;22.00;58.30
55785;DHT22;41709;52.536;5.688;2023-07-20T14:48:06;21.90;57.80
55785;DHT22;41709;52.536;5.688;2023-07-20T14:50:32;21.90;58.70
55785;DHT22;41709;52.536;5.688;2023-07-20T14:52:58;21.90;57.50
55785;DHT22;41709;52.536;5.688;2023-07-20T14:55:24;22.00;58.70
55785;DHT22;41709;52.536;5.688;2023-07-20T14:57:50;22.00;58.30
55785;DHT22;41709;52.536;5.688;2023-07-20T15:00:16;22.00;58.40
55785;DHT22;41709;52.536;5.688;2023-07-20T15:02:42;22.10;58.60
55785;DHT22;41709;52.536;5.688;2023-07-20T15:05:09;22.20;58.00
55785;DHT22;41709;52.536;5.688;2023-07-20T15:07:36;22.20;58.00
55785;DHT22;41709;52.536;5.688;2023-07-20T15:10:04;22.20;57.60
55785;DHT22;41709;52.536;5.688;2023-07-20T15:12:31;22.10;57.30
55785;DHT22;41709;52.536;5.688;2023-07-20T15:15:05;22.20;57.70
55785;DHT22;41709;52.536;5.688;2023-07-20T15:17:31;22.20;58.40
55785;DHT22;41709;52.536;5.688;2023-07-20T15:19:57;22.30;58.30
55785;DHT22;41709;52.536;5.688;2023-07-20T15:22:23;22.30;58.50
55785;DHT22;41709;52.536;5.688;2023-07-20T15:24:49;22.30;57.80
55785;DHT22;41709;52.536;5.688;2023-07-20T15:27:14;22.20;57.90
55785;DHT22;41709;52.536;5.688;2023-07-20T15:29:40;22.10;58.80
55785;DHT22;41709;52.536;5.688;2023-07-20T15:32:06;22.20;58.50
55785;DHT22;41709;52.536;5.688;2023-07-20T15:34:33;22.30;58.80
55785;DHT22;41709;52.536;5.688;2023-07-20T15:36:59;22.40;58.90
55785;DHT22;41709;52.536;5.688;2023-07-20T15:39:24;22.50;58.20